Tombstone, Arizona
Current Conditions -  °F | °C
As of 8:55 PM on Friday 19 Dec 2014 (Local Time) from KFHU Reporting Station
Clear Clear  
Wind Chill: 34°   Ceiling: Unl
Heat Index: 37°   Visibility: 10mi
Dew Point: 30°   Wind: 5mph
Humidity: 75%   Direction: 260°W
Pressure: 30.17"   Gusts: NA
Location:  31.71°N, 110.07°W
Report Text: KFHU 200355Z 26004KT 10SM CLR 03/M01 A3017 RMK SLP220
Loading
Personal Weather Stations






























Interactive Weather Map New forecast layout! Learn more

10-Day Weather Forecast

Advertisements
Track Severe Weather on mobile